createdAt,value
2022-07-26T00:02:04.542Z,97.93
2022-07-26T00:04:32.672Z,99.15
2022-07-26T00:07:00.512Z,99.86
2022-07-26T00:09:29.461Z,99.71
2022-07-26T00:11:57.118Z,100.00
2022-07-26T00:14:25.243Z,98.74
2022-07-26T00:16:53.081Z,97.31
2022-07-26T00:19:21.033Z,96.43
2022-07-26T00:22:08.939Z,96.46
2022-07-26T00:24:37.114Z,96.30
2022-07-26T00:27:04.965Z,96.01
2022-07-26T00:29:32.770Z,96.91
2022-07-26T00:32:00.387Z,98.29
2022-07-26T00:34:27.960Z,98.34
2022-07-26T00:36:56.063Z,99.69
2022-07-26T00:39:24.678Z,100.00
2022-07-26T00:41:52.260Z,100.00
2022-07-26T00:44:19.817Z,100.00
2022-07-26T00:46:47.633Z,100.00
2022-07-26T00:49:15.382Z,100.00
2022-07-26T00:51:45.668Z,100.00
2022-07-26T00:54:17.129Z,100.00
2022-07-26T00:56:44.764Z,99.89
2022-07-26T00:59:13.112Z,98.63
2022-07-26T01:01:40.840Z,100.00
2022-07-26T01:04:08.857Z,100.00
2022-07-26T01:06:38.496Z,100.00
2022-07-26T01:09:05.930Z,100.00
2022-07-26T01:11:34.355Z,100.00
2022-07-26T01:14:02.029Z,100.00
2022-07-26T01:16:29.854Z,100.00
2022-07-26T01:18:58.379Z,100.00
2022-07-26T01:21:33.324Z,100.00
2022-07-26T01:24:00.993Z,100.00
2022-07-26T01:26:28.639Z,100.00
2022-07-26T01:28:56.731Z,100.00
2022-07-26T01:31:24.493Z,100.00
2022-07-26T01:33:52.197Z,100.00
2022-07-26T01:36:19.992Z,100.00
2022-07-26T01:38:47.786Z,100.00
2022-07-26T01:41:15.328Z,100.00
2022-07-26T01:43:43.646Z,100.00
2022-07-26T01:46:11.372Z,100.00
2022-07-26T01:48:39.362Z,100.00
2022-07-26T01:51:07.080Z,100.00
2022-07-26T01:53:34.768Z,100.00
2022-07-26T01:56:02.246Z,100.00
2022-07-26T01:58:29.955Z,100.00
2022-07-26T02:00:57.457Z,100.00
2022-07-26T02:03:24.933Z,100.00
2022-07-26T02:05:52.307Z,100.00
2022-07-26T02:08:19.924Z,100.00
2022-07-26T02:11:03.639Z,100.00
2022-07-26T02:13:34.403Z,100.00
2022-07-26T02:16:04.137Z,100.00
2022-07-26T02:18:31.841Z,100.00
2022-07-26T02:21:01.537Z,100.00
2022-07-26T02:23:29.485Z,100.00
2022-07-26T02:25:57.206Z,100.00
2022-07-26T02:28:24.748Z,100.00
2022-07-26T02:30:52.414Z,100.00
2022-07-26T02:33:21.328Z,100.00
2022-07-26T02:35:48.979Z,100.00
2022-07-26T02:38:16.889Z,100.00
2022-07-26T02:40:44.651Z,100.00
2022-07-26T02:43:12.187Z,100.00
2022-07-26T02:45:39.851Z,100.00
2022-07-26T02:48:07.604Z,100.00
2022-07-26T02:50:35.569Z,100.00
2022-07-26T02:53:03.476Z,100.00
2022-07-26T02:55:31.322Z,100.00
2022-07-26T02:57:58.973Z,100.00
2022-07-26T03:00:27.075Z,100.00
2022-07-26T03:02:54.904Z,100.00
2022-07-26T03:05:22.679Z,100.00
2022-07-26T03:07:50.569Z,100.00
2022-07-26T03:10:18.220Z,100.00
2022-07-26T03:12:46.742Z,100.00
2022-07-26T03:15:14.684Z,100.00
2022-07-26T03:17:42.169Z,100.00
2022-07-26T03:20:10.505Z,100.00
2022-07-26T03:22:37.953Z,100.00
2022-07-26T03:25:05.752Z,100.00
2022-07-26T03:27:34.058Z,100.00
2022-07-26T03:30:01.605Z,100.00
2022-07-26T03:32:29.265Z,100.00
2022-07-26T03:34:56.626Z,100.00
2022-07-26T03:37:24.394Z,100.00
2022-07-26T03:39:51.816Z,100.00
2022-07-26T03:42:19.369Z,100.00
2022-07-26T03:44:46.787Z,100.00
2022-07-26T03:47:14.311Z,100.00
2022-07-26T03:49:41.744Z,100.00
2022-07-26T03:52:11.028Z,100.00
2022-07-26T03:54:38.592Z,100.00
2022-07-26T03:57:06.069Z,100.00
2022-07-26T03:59:33.630Z,100.00
2022-07-26T04:02:01.181Z,100.00
2022-07-26T04:04:28.848Z,100.00
2022-07-26T04:06:56.938Z,100.00
2022-07-26T10:33:01.935Z,70.53
2022-07-26T10:35:42.541Z,68.66
2022-07-26T10:38:12.212Z,74.68
2022-07-26T10:40:56.379Z,82.05
2022-07-26T10:43:41.560Z,91.17
2022-07-26T10:46:19.085Z,95.57
2022-07-26T10:49:00.368Z,100.00
2022-07-26T10:51:49.334Z,100.00
2022-07-26T10:54:18.169Z,100.00
2022-07-26T10:56:45.675Z,100.00
2022-07-26T10:59:54.410Z,100.00
2022-07-26T11:02:21.414Z,100.00
2022-07-26T11:05:01.159Z,100.00
2022-07-26T11:07:30.266Z,100.00
2022-07-26T11:10:01.671Z,100.00
2022-07-26T11:12:29.172Z,100.00
2022-07-26T11:14:56.786Z,100.00
2022-07-26T11:17:27.787Z,100.00
2022-07-26T11:19:56.193Z,100.00
2022-07-26T11:22:36.225Z,100.00
2022-07-26T11:25:05.218Z,100.00
2022-07-26T11:27:32.774Z,97.29
2022-07-26T11:30:05.573Z,96.92
2022-07-26T11:32:33.114Z,98.73
2022-07-26T11:35:02.332Z,98.13
2022-07-26T11:37:31.094Z,95.15
2022-07-26T11:39:58.773Z,94.96
2022-07-26T11:42:26.358Z,94.33
2022-07-26T11:44:54.220Z,92.96
2022-07-26T11:47:25.353Z,93.66
2022-07-26T11:52:43.212Z,90.49
2022-07-26T11:55:10.671Z,89.13
2022-07-26T11:57:38.669Z,88.68
2022-07-26T12:00:07.129Z,90.81
2022-07-26T12:02:34.925Z,89.48
2022-07-26T12:05:20.813Z,86.81
2022-07-26T12:07:55.159Z,85.61
2022-07-26T12:10:23.376Z,81.60
2022-07-26T12:13:13.773Z,82.43
2022-07-26T12:15:53.821Z,83.52
2022-07-26T12:18:30.201Z,84.88
2022-07-26T12:21:04.097Z,84.51
2022-07-26T12:23:48.530Z,85.35
2022-07-26T12:26:27.981Z,78.46
2022-07-26T12:28:56.929Z,79.13
2022-07-26T12:31:33.010Z,81.17
2022-07-26T12:34:00.980Z,76.27
2022-07-26T12:36:29.984Z,81.68
2022-07-26T12:38:59.588Z,80.43
2022-07-26T12:41:40.302Z,81.28
2022-07-26T12:44:12.234Z,80.14
2022-07-26T12:46:40.842Z,80.31
2022-07-26T12:49:10.970Z,81.79
2022-07-26T12:51:39.072Z,79.82
2022-07-26T12:54:06.746Z,79.08
2022-07-26T12:56:35.345Z,80.75
2022-07-26T12:59:02.958Z,83.71
2022-07-26T13:01:32.078Z,85.86
2022-07-26T13:04:00.129Z,86.79
2022-07-26T13:06:27.883Z,88.62
2022-07-26T13:08:56.685Z,90.27
2022-07-26T13:11:25.161Z,92.82
2022-07-26T13:13:52.721Z,92.48
2022-07-26T13:16:20.292Z,92.40
2022-07-26T13:18:49.116Z,91.96
2022-07-26T13:21:17.190Z,91.00
2022-07-26T13:23:44.758Z,92.06
2022-07-26T13:26:12.282Z,92.06
2022-07-26T13:28:40.784Z,92.01
2022-07-26T13:31:08.637Z,92.05
2022-07-26T13:33:39.491Z,89.54
2022-07-26T13:36:07.042Z,92.86
2022-07-26T13:41:02.530Z,93.30
2022-07-26T13:43:35.402Z,94.41
2022-07-26T13:46:04.005Z,95.83
2022-07-26T13:48:31.600Z,95.62
2022-07-26T13:50:59.247Z,96.30
2022-07-26T13:53:27.801Z,99.17
2022-07-26T13:55:55.268Z,100.00
2022-07-26T13:58:23.643Z,96.16
2022-07-26T14:00:51.193Z,97.67
2022-07-26T14:03:20.067Z,96.95
2022-07-26T14:05:47.550Z,96.22
2022-07-26T14:08:15.564Z,91.34
2022-07-26T14:10:46.552Z,91.43
2022-07-26T14:13:15.345Z,90.84
2022-07-26T14:15:42.726Z,88.55
2022-07-26T14:18:10.211Z,88.03
2022-07-26T14:20:39.505Z,88.29
2022-07-26T14:23:07.286Z,90.16
2022-07-26T14:25:35.267Z,89.80
2022-07-26T14:28:02.835Z,83.59
2022-07-26T14:30:30.408Z,85.17
2022-07-26T14:32:58.038Z,86.01
2022-07-26T14:35:29.409Z,86.92
2022-07-26T14:37:56.848Z,87.79
2022-07-26T14:40:24.699Z,87.95
2022-07-26T14:42:52.214Z,88.26
2022-07-26T14:45:19.810Z,86.82
2022-07-26T14:47:47.374Z,86.48
2022-07-26T14:50:15.424Z,81.75
2022-07-26T14:52:46.277Z,85.11
2022-07-26T14:55:15.394Z,81.05
2022-07-26T14:57:43.406Z,80.37
2022-07-26T15:00:14.720Z,81.61
2022-07-26T15:02:45.398Z,81.15
2022-07-26T15:05:15.408Z,84.56
2022-07-26T15:07:43.587Z,86.28
2022-07-26T15:10:13.628Z,84.06
2022-07-26T15:12:44.820Z,84.19
2022-07-26T15:15:12.511Z,81.69
2022-07-26T15:17:46.355Z,80.44
2022-07-26T15:20:24.313Z,83.28
2022-07-26T15:22:54.143Z,83.83
2022-07-26T15:25:24.128Z,82.12
2022-07-26T15:27:51.778Z,82.52
2022-07-26T15:30:22.255Z,81.81
2022-07-26T15:32:56.262Z,84.00
2022-07-26T15:35:23.701Z,84.48
2022-07-26T15:37:51.745Z,81.16
2022-07-26T15:40:20.968Z,84.69
2022-07-26T15:42:50.634Z,82.89
2022-07-26T15:45:18.593Z,84.07
2022-07-26T15:48:01.087Z,83.18
2022-07-26T15:50:35.114Z,83.83
2022-07-26T15:53:02.650Z,85.11
2022-07-26T15:55:30.364Z,85.17
2022-07-26T15:57:57.893Z,85.81
2022-07-26T16:00:25.469Z,85.59
2022-07-26T16:02:53.372Z,85.91
2022-07-26T16:05:23.173Z,85.50
2022-07-26T16:07:50.813Z,84.80
2022-07-26T16:10:18.313Z,85.37
2022-07-26T16:12:46.273Z,86.68
2022-07-26T16:15:19.424Z,87.03
2022-07-26T16:17:47.495Z,86.72
2022-07-26T16:20:16.487Z,86.62
2022-07-26T16:22:44.222Z,84.00
2022-07-26T16:25:16.143Z,84.81
2022-07-26T16:27:44.115Z,83.96
2022-07-26T16:30:13.175Z,83.90
2022-07-26T16:32:42.749Z,84.99
2022-07-26T16:35:10.885Z,83.03
2022-07-26T16:37:38.935Z,84.02
2022-07-26T16:40:07.656Z,84.97
2022-07-26T16:42:35.490Z,85.02
2022-07-26T16:45:03.124Z,85.29
2022-07-26T16:47:30.998Z,85.86
2022-07-26T16:49:58.631Z,85.63
2022-07-26T16:52:26.052Z,85.81
2022-07-26T16:54:53.782Z,85.42
2022-07-26T16:57:21.240Z,87.58
2022-07-26T16:59:48.769Z,88.53
2022-07-26T17:02:16.808Z,87.81
2022-07-26T17:04:44.529Z,88.34
2022-07-26T17:07:25.067Z,89.14
2022-07-26T17:09:53.115Z,90.44
2022-07-26T17:12:21.641Z,90.04
2022-07-26T17:14:50.232Z,90.15
2022-07-26T17:17:17.723Z,92.15
2022-07-26T17:19:45.639Z,93.48
2022-07-26T17:22:13.680Z,91.70
2022-07-26T17:24:41.301Z,92.84
2022-07-26T17:27:08.994Z,92.08
2022-07-26T17:29:36.732Z,93.22
2022-07-26T17:32:04.703Z,94.32
2022-07-26T17:34:33.629Z,94.23
2022-07-26T17:37:05.723Z,93.69
2022-07-26T17:39:51.784Z,94.50
2022-07-26T17:42:25.323Z,93.54
2022-07-26T17:44:52.936Z,92.58
2022-07-26T17:47:29.404Z,93.25
2022-07-26T17:50:34.126Z,94.60
2022-07-26T17:52:51.027Z,95.94
2022-07-26T17:55:19.838Z,95.03
2022-07-26T17:57:50.381Z,95.74
2022-07-26T18:00:20.546Z,95.08
2022-07-26T18:02:48.707Z,95.33
2022-07-26T18:05:16.880Z,95.97
2022-07-26T18:07:44.376Z,96.00
2022-07-26T18:10:14.576Z,94.81
2022-07-26T18:12:42.502Z,94.52
2022-07-26T18:15:10.834Z,94.31
2022-07-26T18:17:43.888Z,94.13
2022-07-26T18:20:12.307Z,94.55
2022-07-26T18:22:40.260Z,94.42
2022-07-26T18:25:08.236Z,94.81
2022-07-26T18:27:35.641Z,95.57
2022-07-26T18:30:05.016Z,96.17
2022-07-26T18:32:34.274Z,95.94
2022-07-26T18:35:01.775Z,96.97
2022-07-26T18:37:29.469Z,98.19
2022-07-26T18:39:58.036Z,98.57
2022-07-26T18:42:26.670Z,99.91
2022-07-26T18:44:54.378Z,100.00
2022-07-26T18:47:22.249Z,100.00
2022-07-26T18:49:50.121Z,100.00
2022-07-26T18:52:31.904Z,100.00
2022-07-26T18:55:07.305Z,99.36
2022-07-26T18:57:36.884Z,100.00
2022-07-26T19:00:06.993Z,100.00
2022-07-26T19:02:34.596Z,100.00
2022-07-26T19:05:02.377Z,100.00
2022-07-26T19:07:31.890Z,100.00
2022-07-26T19:10:00.297Z,100.00
2022-07-26T19:12:28.552Z,100.00
2022-07-26T19:14:56.137Z,100.00
2022-07-26T19:17:24.975Z,100.00
2022-07-26T19:19:53.085Z,100.00
2022-07-26T19:22:21.802Z,100.00
2022-07-26T19:24:49.221Z,97.11
2022-07-26T19:27:16.694Z,95.96
2022-07-26T19:29:44.949Z,96.68
2022-07-26T19:32:12.916Z,95.81
2022-07-26T19:34:40.688Z,95.67
2022-07-26T19:37:10.858Z,96.72
2022-07-26T19:39:40.005Z,99.69
2022-07-26T19:42:07.456Z,99.57
2022-07-26T19:44:36.277Z,99.97
2022-07-26T19:47:04.002Z,100.00
2022-07-26T19:49:32.202Z,100.00
2022-07-26T19:51:59.968Z,99.20
2022-07-26T19:54:28.423Z,96.14
2022-07-26T19:56:55.910Z,98.01
2022-07-26T19:59:24.412Z,99.08
2022-07-26T20:01:55.324Z,100.00
2022-07-26T20:04:25.833Z,100.00
2022-07-26T20:06:55.048Z,100.00
2022-07-26T20:09:22.547Z,100.00
2022-07-26T20:11:51.227Z,100.00
2022-07-26T20:14:19.921Z,100.00
2022-07-26T20:16:50.532Z,100.00
2022-07-26T20:19:23.515Z,100.00
2022-07-26T20:21:51.585Z,100.00
2022-07-26T20:24:19.180Z,100.00
2022-07-26T20:26:46.901Z,100.00
2022-07-26T20:29:14.896Z,100.00
2022-07-26T20:31:43.150Z,100.00
2022-07-26T20:34:10.613Z,100.00
2022-07-26T20:36:38.334Z,100.00
2022-07-26T20:39:06.056Z,100.00
2022-07-26T20:41:34.952Z,100.00
2022-07-26T20:44:02.477Z,98.93
2022-07-26T20:46:32.080Z,99.10
2022-07-26T20:49:00.044Z,100.00
2022-07-26T20:51:27.542Z,96.39
2022-07-26T20:53:54.936Z,97.93
2022-07-26T20:56:22.623Z,95.67
2022-07-26T20:58:50.389Z,94.01
2022-07-26T21:01:17.958Z,92.59
2022-07-26T21:03:47.483Z,88.75
2022-07-26T21:06:15.344Z,91.73
2022-07-26T21:08:44.360Z,90.49
2022-07-26T21:11:11.897Z,91.02
2022-07-26T21:13:53.090Z,91.61
2022-07-26T21:16:21.218Z,93.26
2022-07-26T21:18:53.031Z,92.30
2022-07-26T21:21:22.525Z,91.05
2022-07-26T21:23:50.163Z,91.39
2022-07-26T21:26:17.576Z,91.25
2022-07-26T21:28:45.237Z,91.62
2022-07-26T21:31:12.808Z,91.87
2022-07-26T21:33:40.310Z,92.07
2022-07-26T21:36:08.039Z,90.87
2022-07-26T21:38:35.545Z,91.23
2022-07-26T21:41:03.034Z,91.23
2022-07-26T21:43:30.581Z,90.75
2022-07-26T21:45:58.128Z,90.85
2022-07-26T21:48:26.993Z,89.74
2022-07-26T21:50:54.561Z,90.73
2022-07-26T21:53:22.021Z,91.38
2022-07-26T21:55:49.760Z,94.35
2022-07-26T21:58:17.282Z,94.12
2022-07-26T22:00:44.976Z,93.30
2022-07-26T22:03:13.640Z,93.45
2022-07-26T22:05:44.129Z,92.25
2022-07-26T22:08:13.856Z,91.83
2022-07-26T22:10:44.926Z,92.34
2022-07-26T22:13:14.216Z,92.40
2022-07-26T22:15:42.974Z,93.41
2022-07-26T22:18:10.827Z,93.62
2022-07-26T22:20:39.493Z,94.85
2022-07-26T22:23:09.463Z,94.33
2022-07-26T22:25:38.300Z,93.49
2022-07-26T22:28:08.500Z,94.98
2022-07-26T22:30:36.522Z,95.63
2022-07-26T22:33:07.955Z,95.17
2022-07-26T22:35:36.458Z,94.92
2022-07-26T22:38:11.048Z,97.08
2022-07-26T22:40:41.264Z,97.50
2022-07-26T22:43:09.614Z,97.48
2022-07-26T22:45:37.943Z,96.82
2022-07-26T22:48:05.979Z,98.23
2022-07-26T22:50:34.056Z,99.39
2022-07-26T22:53:02.005Z,99.37
2022-07-26T22:55:30.253Z,100.00
2022-07-26T22:57:58.048Z,100.00
2022-07-26T23:00:25.826Z,99.07
2022-07-26T23:02:53.298Z,100.00
2022-07-26T23:05:20.782Z,100.00
2022-07-26T23:07:49.110Z,100.00
2022-07-26T23:10:17.863Z,100.00
2022-07-26T23:12:58.079Z,100.00
2022-07-26T23:15:29.118Z,100.00
2022-07-26T23:17:57.128Z,100.00
2022-07-26T23:20:25.309Z,99.29
2022-07-26T23:22:52.905Z,100.00
2022-07-26T23:25:22.118Z,100.00
2022-07-26T23:27:49.577Z,100.00
2022-07-26T23:30:17.067Z,100.00
2022-07-26T23:32:44.475Z,100.00
2022-07-26T23:35:13.022Z,100.00
2022-07-26T23:37:40.693Z,100.00
2022-07-26T23:40:09.014Z,100.00
2022-07-26T23:42:39.639Z,100.00
2022-07-26T23:45:08.367Z,100.00
2022-07-26T23:47:35.870Z,98.85
2022-07-26T23:50:03.693Z,99.12
2022-07-26T23:52:31.622Z,98.59
2022-07-26T23:54:59.017Z,98.74
2022-07-26T23:57:26.663Z,100.00
2022-07-26T23:59:54.342Z,100.00
